Home > Products > Valid Products > TAF

000
FTPQ31 PGUM 250200 AAC
TAFPQ
TAF AMD
PGUM 250252Z 2503/2606 11011KT P6SM VCSH SCT018 BKN035 BKN120
      TEMPO 2503/2507 3SM SHRA SCT015 OVC030=



000
FTPQ31 PGUM 250200 AAC
TAFPQ
TAF AMD
PGUM 250252Z 2503/2606 11011KT P6SM VCSH SCT018 BKN035 BKN120
      TEMPO 2503/2507 3SM SHRA SCT015 OVC030=



000
FTPQ31 PGUM 242300
TAFPQ
TAF
PGUM 242323Z 2500/2606 11011KT P6SM VCSH SCT018 SCT035 SCT120=



000
FTPQ31 PGUM 242300
TAFPQ
TAF
PGUM 242323Z 2500/2606 11011KT P6SM VCSH SCT018 SCT035 SCT120=



000
FTPQ31 PGUM 241700
TAFPQ
TAF
PGUM 241720Z 2418/2524 11010KT P6SM VCSH SCT018 SCT035 BKN120=



000
FTPQ31 PGUM 241700
TAFPQ
TAF
PGUM 241720Z 2418/2524 11010KT P6SM VCSH SCT018 SCT035 BKN120=



000
FTPQ31 PGUM 241100
TAFPQ
TAF
PGUM 241123Z 2412/2518 11008KT P6SM VCSH FEW020 SCT040 SCT120=



000
FTPQ31 PGUM 241100
TAFPQ
TAF
PGUM 241123Z 2412/2518 11008KT P6SM VCSH FEW020 SCT040 SCT120=



000
FTPQ31 PGUM 240500 RRA
TAFPQ
TAF
PGUM 240551Z 2406/2512 10008KT P6SM VCSH FEW020 SCT050 SCT120=



000
FTPQ31 PGUM 240500 RRA
TAFPQ
TAF
PGUM 240551Z 2406/2512 10008KT P6SM VCSH FEW020 SCT050 SCT120=



000
FTPQ31 PGUM 232300
TAFPQ
TAF
PGUM 232320Z 2400/2506 08011KT P6SM VCSH FEW018 SCT050 SCT120=



000
FTPQ31 PGUM 232300
TAFPQ
TAF
PGUM 232320Z 2400/2506 08011KT P6SM VCSH FEW018 SCT050 SCT120=



000
FTPQ31 PGUM 231700
TAFPQ
TAF
PGUM 231722Z 2318/2424 08010KT P6SM VCSH SCT017 SCT050=



000
FTPQ31 PGUM 231700
TAFPQ
TAF
PGUM 231722Z 2318/2424 08010KT P6SM VCSH SCT017 SCT050=



000
FTPQ31 PGUM 231400 AAA
TAFPQ
TAF AMD
PGUM 231458Z 2315/2418 08008KT P6SM VCTS SCT017CB SCT060 BKN100
      TEMPO 2315/2316 09008G17KT 2SM TSRA BKN015CB OVC070
     FM231700 08008KT P6SM VCSH SCT020 SCT060=



000
FTPQ31 PGUM 231400 AAA
TAFPQ
TAF AMD
PGUM 231458Z 2315/2418 08008KT P6SM VCTS SCT017CB SCT060 BKN100
      TEMPO 2315/2316 09008G17KT 2SM TSRA BKN015CB OVC070
     FM231700 08008KT P6SM VCSH SCT020 SCT060=



000
FTPQ31 PGUM 231100
TAFPQ
TAF
PGUM 231125Z 2312/2418 08008KT P6SM VCSH FEW020 SCT060=



000
FTPQ31 PGUM 231100
TAFPQ
TAF
PGUM 231125Z 2312/2418 08008KT P6SM VCSH FEW020 SCT060=



000
FTPQ31 PGUM 230500 RRA
TAFPQ
TAF
PGUM 230546Z 2306/2412 09008KT P6SM VCSH SCT020 SCT060
      TEMPO 2306/2308 3SM SHRA BKN018CB BKN050=



000
FTPQ31 PGUM 230500 RRA
TAFPQ
TAF
PGUM 230546Z 2306/2412 09008KT P6SM VCSH SCT020 SCT060
      TEMPO 2306/2308 3SM SHRA BKN018CB BKN050=



000
FTPQ31 PGUM 222300
TAFPQ
TAF
PGUM 222331Z 2300/2406 08008KT P6SM VCSH SCT020 SCT060
      TEMPO 2300/2303 4SM SHRA BKN018 BKN050=



000
FTPQ31 PGUM 222300
TAFPQ
TAF
PGUM 222331Z 2300/2406 08008KT P6SM VCSH SCT020 SCT060
      TEMPO 2300/2303 4SM SHRA BKN018 BKN050=



000
FTPQ31 PGUM 221700
TAFPQ
TAF
PGUM 221720Z 2218/2324 08008KT P6SM VCSH FEW020 SCT060=



000
FTPQ31 PGUM 221700
TAFPQ
TAF
PGUM 221720Z 2218/2324 08008KT P6SM VCSH FEW020 SCT060=



000
FTPQ31 PGUM 221100
TAFPQ
TAF
PGUM 221121Z 2212/2318 08008KT P6SM VCSH FEW020 SCT060=



000
FTPQ31 PGUM 221100
TAFPQ
TAF
PGUM 221121Z 2212/2318 08008KT P6SM VCSH FEW020 SCT060=



000
FTPQ31 PGUM 220500
TAFPQ
TAF
PGUM 220533Z 2206/2312 10011KT P6SM VCSH SCT020 SCT060=



000
FTPQ31 PGUM 220500
TAFPQ
TAF
PGUM 220533Z 2206/2312 10011KT P6SM VCSH SCT020 SCT060=



    US Dept of Commerce
    National Oceanic and Atmospheric Administration
    National Weather Service
    1325 East West Highway
    Silver Spring, MD 20910
    Page Author: NWS Internet Services Team
Disclaimer
Information Quality
Credits
Glossary
Privacy Policy
Freedom of Information Act (FOIA)
About Us
Career Opportunities